Ana Sayfa
METAR-TAF:

METAR-TAF

Havaalanları :

St. Michael, Alaska, Amerika Birleşik Devletleri

Enlem: 63-29-24N, Boylam: 162-06-37W, yükseklik: 30 m

Güncel hava durumu gözlemi

Rapor saat 05:56 UTC de 11 dakika önce yapıldı.
Rüzgar kuzey/kuzeybatıdan 9 kt
Sıcaklık 3°C
Nem 75%
Basınç 1012 hPa
Görüş mesafesi: 16.1 km
Açık gökyüzü

METAR: PAMK 270556Z AUTO 33009KT 10SM CLR 03/M01 A2988 RMK AO2 SLP119 T00331006 10044 20033 56009

Saat: 22:07 (06:07 UTC)


TAF: eksik

4.000'den fazla havaalanı için hava durumu gözlemleri ve tahminleri (METAR ve TAF raporları).

Kullanılabilir istasyonlar harita üzerinde sarı ve kırmızı noktalarla gösterilir.

İstasyonun adını görmek için fareyi noktanın üzerinde gezdirin.

Sonrasında hava gözlem ve tahminlerini görmek için tıklayın.

Haritayı değiştirmek için: yaklaştırmak için siyah artı işaretli yeşil düğmeye ve uzaklaştırmak için de eksi işaretli düğmeye hızla tıklayın; bitişik haritalar için yeşil okları kullanın.


METAR-TAF: